sensor_id;sensor_type;location;lat;lon;timestamp;P1;durP1;ratioP1;P2;durP2;ratioP2
63218;SDS011;49320;52.512;13.448;2022-11-25T00:01:20;29.00;;;20.90;;
63218;SDS011;49320;52.512;13.448;2022-11-25T00:03:50;28.27;;;21.55;;
63218;SDS011;49320;52.512;13.448;2022-11-25T00:08:57;26.38;;;20.83;;
63218;SDS011;49320;52.512;13.448;2022-11-25T00:11:27;27.40;;;20.35;;
63218;SDS011;49320;52.512;13.448;2022-11-25T00:13:54;28.23;;;20.70;;
63218;SDS011;49320;52.512;13.448;2022-11-25T00:16:23;28.42;;;20.77;;
63218;SDS011;49320;52.512;13.448;2022-11-25T00:18:52;27.92;;;21.17;;
63218;SDS011;49320;52.512;13.448;2022-11-25T00:21:23;29.63;;;21.17;;
63218;SDS011;49320;52.512;13.448;2022-11-25T00:23:54;28.15;;;22.02;;
63218;SDS011;49320;52.512;13.448;2022-11-25T00:26:30;30.17;;;21.55;;
63218;SDS011;49320;52.512;13.448;2022-11-25T00:29:00;30.98;;;23.10;;
63218;SDS011;49320;52.512;13.448;2022-11-25T00:31:31;29.50;;;21.98;;
63218;SDS011;49320;52.512;13.448;2022-11-25T00:34:01;32.35;;;22.30;;
63218;SDS011;49320;52.512;13.448;2022-11-25T00:36:32;30.83;;;23.65;;
63218;SDS011;49320;52.512;13.448;2022-11-25T00:39:20;32.15;;;23.27;;
63218;SDS011;49320;52.512;13.448;2022-11-25T00:41:49;29.98;;;22.08;;
63218;SDS011;49320;52.512;13.448;2022-11-25T00:44:35;32.45;;;22.92;;
63218;SDS011;49320;52.512;13.448;2022-11-25T00:47:13;31.60;;;23.17;;
63218;SDS011;49320;52.512;13.448;2022-11-25T00:49:46;30.63;;;22.50;;
63218;SDS011;49320;52.512;13.448;2022-11-25T00:52:24;31.95;;;23.15;;
63218;SDS011;49320;52.512;13.448;2022-11-25T00:54:52;30.08;;;22.42;;
63218;SDS011;49320;52.512;13.448;2022-11-25T00:57:20;34.08;;;22.52;;
63218;SDS011;49320;52.512;13.448;2022-11-25T00:59:48;32.35;;;21.25;;
63218;SDS011;49320;52.512;13.448;2022-11-25T01:02:16;28.33;;;21.15;;
63218;SDS011;49320;52.512;13.448;2022-11-25T01:04:44;30.23;;;22.17;;
63218;SDS011;49320;52.512;13.448;2022-11-25T01:07:12;32.17;;;20.73;;
63218;SDS011;49320;52.512;13.448;2022-11-25T01:09:40;29.85;;;21.58;;
63218;SDS011;49320;52.512;13.448;2022-11-25T01:12:07;28.13;;;20.70;;
63218;SDS011;49320;52.512;13.448;2022-11-25T01:14:34;31.15;;;20.67;;
63218;SDS011;49320;52.512;13.448;2022-11-25T01:17:02;24.42;;;19.65;;
63218;SDS011;49320;52.512;13.448;2022-11-25T01:19:29;26.52;;;19.60;;
63218;SDS011;49320;52.512;13.448;2022-11-25T01:21:56;26.45;;;18.92;;
63218;SDS011;49320;52.512;13.448;2022-11-25T01:24:22;23.88;;;18.77;;
63218;SDS011;49320;52.512;13.448;2022-11-25T01:26:52;25.48;;;18.73;;
63218;SDS011;49320;52.512;13.448;2022-11-25T01:29:20;27.30;;;20.67;;
63218;SDS011;49320;52.512;13.448;2022-11-25T01:31:47;31.77;;;20.83;;
63218;SDS011;49320;52.512;13.448;2022-11-25T01:34:18;31.20;;;22.20;;
63218;SDS011;49320;52.512;13.448;2022-11-25T01:36:48;29.92;;;21.42;;
63218;SDS011;49320;52.512;13.448;2022-11-25T01:39:17;30.05;;;20.48;;
63218;SDS011;49320;52.512;13.448;2022-11-25T01:41:57;32.92;;;20.73;;
63218;SDS011;49320;52.512;13.448;2022-11-25T01:44:27;27.50;;;20.38;;
63218;SDS011;49320;52.512;13.448;2022-11-25T01:47:01;29.38;;;21.15;;
63218;SDS011;49320;52.512;13.448;2022-11-25T01:49:45;27.30;;;19.98;;
63218;SDS011;49320;52.512;13.448;2022-11-25T01:52:25;27.73;;;19.85;;
63218;SDS011;49320;52.512;13.448;2022-11-25T01:55:00;27.42;;;20.85;;
63218;SDS011;49320;52.512;13.448;2022-11-25T01:57:40;29.67;;;21.23;;
63218;SDS011;49320;52.512;13.448;2022-11-25T02:00:13;29.33;;;20.75;;
63218;SDS011;49320;52.512;13.448;2022-11-25T02:02:41;29.67;;;20.58;;
63218;SDS011;49320;52.512;13.448;2022-11-25T02:05:09;31.73;;;20.25;;
63218;SDS011;49320;52.512;13.448;2022-11-25T02:07:41;30.25;;;21.05;;
63218;SDS011;49320;52.512;13.448;2022-11-25T02:10:17;29.98;;;21.10;;
63218;SDS011;49320;52.512;13.448;2022-11-25T02:12:51;26.50;;;20.55;;
63218;SDS011;49320;52.512;13.448;2022-11-25T02:15:19;29.23;;;20.27;;
63218;SDS011;49320;52.512;13.448;2022-11-25T02:17:46;31.30;;;21.40;;
63218;SDS011;49320;52.512;13.448;2022-11-25T02:20:15;32.30;;;22.33;;
63218;SDS011;49320;52.512;13.448;2022-11-25T02:25:51;26.73;;;20.08;;
63218;SDS011;49320;52.512;13.448;2022-11-25T02:28:23;28.55;;;19.85;;
63218;SDS011;49320;52.512;13.448;2022-11-25T02:30:54;29.35;;;20.45;;
63218;SDS011;49320;52.512;13.448;2022-11-25T02:33:23;32.00;;;21.75;;
63218;SDS011;49320;52.512;13.448;2022-11-25T02:38:46;26.52;;;19.10;;
63218;SDS011;49320;52.512;13.448;2022-11-25T02:41:32;26.95;;;19.73;;
63218;SDS011;49320;52.512;13.448;2022-11-25T02:44:04;27.92;;;20.30;;
63218;SDS011;49320;52.512;13.448;2022-11-25T02:46:31;31.75;;;20.80;;
63218;SDS011;49320;52.512;13.448;2022-11-25T02:48:59;28.92;;;20.52;;
63218;SDS011;49320;52.512;13.448;2022-11-25T02:51:35;26.35;;;20.40;;
63218;SDS011;49320;52.512;13.448;2022-11-25T02:54:05;29.33;;;20.75;;
63218;SDS011;49320;52.512;13.448;2022-11-25T02:56:33;30.60;;;21.38;;
63218;SDS011;49320;52.512;13.448;2022-11-25T02:59:01;28.20;;;20.08;;
63218;SDS011;49320;52.512;13.448;2022-11-25T03:01:29;29.23;;;20.98;;
63218;SDS011;49320;52.512;13.448;2022-11-25T03:03:57;27.98;;;20.98;;
63218;SDS011;49320;52.512;13.448;2022-11-25T03:06:24;26.05;;;18.85;;
63218;SDS011;49320;52.512;13.448;2022-11-25T03:08:51;25.50;;;18.77;;
63218;SDS011;49320;52.512;13.448;2022-11-25T03:11:18;23.85;;;18.75;;
63218;SDS011;49320;52.512;13.448;2022-11-25T03:13:45;25.40;;;18.40;;
63218;SDS011;49320;52.512;13.448;2022-11-25T03:16:12;25.20;;;18.50;;
63218;SDS011;49320;52.512;13.448;2022-11-25T03:18:39;27.05;;;19.75;;
63218;SDS011;49320;52.512;13.448;2022-11-25T03:21:06;22.23;;;18.27;;
63218;SDS011;49320;52.512;13.448;2022-11-25T03:23:33;26.38;;;18.17;;
63218;SDS011;49320;52.512;13.448;2022-11-25T03:26:03;25.25;;;18.85;;
63218;SDS011;49320;52.512;13.448;2022-11-25T03:28:32;23.35;;;18.35;;
63218;SDS011;49320;52.512;13.448;2022-11-25T03:30:59;25.17;;;18.27;;
63218;SDS011;49320;52.512;13.448;2022-11-25T03:33:25;27.40;;;18.63;;
63218;SDS011;49320;52.512;13.448;2022-11-25T03:35:52;23.30;;;17.90;;
63218;SDS011;49320;52.512;13.448;2022-11-25T03:38:19;28.80;;;19.33;;
63218;SDS011;49320;52.512;13.448;2022-11-25T03:40:46;25.95;;;18.65;;
63218;SDS011;49320;52.512;13.448;2022-11-25T03:43:13;25.50;;;19.35;;
63218;SDS011;49320;52.512;13.448;2022-11-25T03:45:39;23.70;;;17.67;;
63218;SDS011;49320;52.512;13.448;2022-11-25T03:48:06;27.80;;;19.85;;
63218;SDS011;49320;52.512;13.448;2022-11-25T03:50:33;26.80;;;18.88;;
63218;SDS011;49320;52.512;13.448;2022-11-25T03:53:00;26.75;;;19.38;;
63218;SDS011;49320;52.512;13.448;2022-11-25T03:55:27;27.27;;;18.52;;
63218;SDS011;49320;52.512;13.448;2022-11-25T03:57:53;25.95;;;18.17;;
63218;SDS011;49320;52.512;13.448;2022-11-25T04:00:20;29.90;;;21.27;;
63218;SDS011;49320;52.512;13.448;2022-11-25T04:02:47;28.27;;;19.98;;
63218;SDS011;49320;52.512;13.448;2022-11-25T04:05:14;27.33;;;19.08;;
63218;SDS011;49320;52.512;13.448;2022-11-25T04:07:41;27.10;;;19.73;;
63218;SDS011;49320;52.512;13.448;2022-11-25T04:10:08;28.15;;;19.42;;
63218;SDS011;49320;52.512;13.448;2022-11-25T04:12:35;27.80;;;20.58;;
63218;SDS011;49320;52.512;13.448;2022-11-25T04:15:15;28.13;;;20.10;;
63218;SDS011;49320;52.512;13.448;2022-11-25T04:17:43;29.25;;;20.90;;
63218;SDS011;49320;52.512;13.448;2022-11-25T04:20:10;27.58;;;19.55;;
63218;SDS011;49320;52.512;13.448;2022-11-25T04:22:39;28.35;;;19.67;;
63218;SDS011;49320;52.512;13.448;2022-11-25T04:25:07;29.50;;;21.05;;
63218;SDS011;49320;52.512;13.448;2022-11-25T04:27:35;28.58;;;19.85;;
63218;SDS011;49320;52.512;13.448;2022-11-25T04:30:02;30.02;;;20.60;;
63218;SDS011;49320;52.512;13.448;2022-11-25T04:32:29;26.10;;;19.63;;
63218;SDS011;49320;52.512;13.448;2022-11-25T04:34:56;32.63;;;21.70;;
63218;SDS011;49320;52.512;13.448;2022-11-25T04:37:23;31.45;;;22.23;;
63218;SDS011;49320;52.512;13.448;2022-11-25T04:39:50;32.00;;;23.65;;
63218;SDS011;49320;52.512;13.448;2022-11-25T04:42:16;34.55;;;24.30;;
63218;SDS011;49320;52.512;13.448;2022-11-25T04:45:00;31.05;;;23.05;;
63218;SDS011;49320;52.512;13.448;2022-11-25T04:47:48;33.17;;;21.48;;
63218;SDS011;49320;52.512;13.448;2022-11-25T04:50:16;31.83;;;21.35;;
63218;SDS011;49320;52.512;13.448;2022-11-25T04:52:46;28.98;;;21.52;;
63218;SDS011;49320;52.512;13.448;2022-11-25T04:55:12;32.08;;;21.50;;
63218;SDS011;49320;52.512;13.448;2022-11-25T04:57:40;31.63;;;20.05;;
63218;SDS011;49320;52.512;13.448;2022-11-25T05:00:07;28.85;;;20.27;;
63218;SDS011;49320;52.512;13.448;2022-11-25T05:02:34;34.00;;;22.42;;
63218;SDS011;49320;52.512;13.448;2022-11-25T05:05:02;33.38;;;20.95;;
63218;SDS011;49320;52.512;13.448;2022-11-25T05:07:30;28.60;;;20.25;;
63218;SDS011;49320;52.512;13.448;2022-11-25T05:09:57;30.35;;;20.27;;
63218;SDS011;49320;52.512;13.448;2022-11-25T05:12:25;28.65;;;19.10;;
63218;SDS011;49320;52.512;13.448;2022-11-25T05:14:54;30.25;;;19.83;;
63218;SDS011;49320;52.512;13.448;2022-11-25T05:17:26;26.73;;;19.27;;
63218;SDS011;49320;52.512;13.448;2022-11-25T05:19:55;28.65;;;19.25;;
63218;SDS011;49320;52.512;13.448;2022-11-25T05:22:27;32.75;;;21.83;;
63218;SDS011;49320;52.512;13.448;2022-11-25T05:24:56;28.60;;;19.50;;
63218;SDS011;49320;52.512;13.448;2022-11-25T05:27:23;25.38;;;18.63;;
63218;SDS011;49320;52.512;13.448;2022-11-25T05:29:51;26.15;;;18.88;;
63218;SDS011;49320;52.512;13.448;2022-11-25T05:32:21;27.45;;;19.95;;
63218;SDS011;49320;52.512;13.448;2022-11-25T05:34:48;25.38;;;18.65;;
63218;SDS011;49320;52.512;13.448;2022-11-25T05:37:15;25.85;;;18.13;;
63218;SDS011;49320;52.512;13.448;2022-11-25T05:39:49;23.27;;;17.77;;
63218;SDS011;49320;52.512;13.448;2022-11-25T05:42:16;25.42;;;17.83;;
63218;SDS011;49320;52.512;13.448;2022-11-25T05:44:43;22.77;;;17.13;;
63218;SDS011;49320;52.512;13.448;2022-11-25T05:47:09;26.60;;;18.17;;
63218;SDS011;49320;52.512;13.448;2022-11-25T05:49:36;26.95;;;17.90;;
63218;SDS011;49320;52.512;13.448;2022-11-25T05:52:03;27.45;;;18.20;;
63218;SDS011;49320;52.512;13.448;2022-11-25T05:54:30;26.63;;;18.48;;
63218;SDS011;49320;52.512;13.448;2022-11-25T05:56:57;27.52;;;19.33;;
63218;SDS011;49320;52.512;13.448;2022-11-25T05:59:24;29.02;;;19.40;;
63218;SDS011;49320;52.512;13.448;2022-11-25T06:01:51;29.42;;;20.48;;
63218;SDS011;49320;52.512;13.448;2022-11-25T06:04:19;32.35;;;19.77;;
63218;SDS011;49320;52.512;13.448;2022-11-25T06:06:46;26.58;;;18.90;;
63218;SDS011;49320;52.512;13.448;2022-11-25T06:09:13;27.85;;;19.90;;
63218;SDS011;49320;52.512;13.448;2022-11-25T06:11:39;31.13;;;20.75;;
63218;SDS011;49320;52.512;13.448;2022-11-25T06:14:06;32.72;;;22.10;;
63218;SDS011;49320;52.512;13.448;2022-11-25T06:16:33;29.88;;;20.52;;
63218;SDS011;49320;52.512;13.448;2022-11-25T06:19:00;32.55;;;19.48;;
63218;SDS011;49320;52.512;13.448;2022-11-25T06:21:32;27.25;;;19.20;;
63218;SDS011;49320;52.512;13.448;2022-11-25T06:23:58;29.73;;;19.35;;
63218;SDS011;49320;52.512;13.448;2022-11-25T06:26:26;29.10;;;19.52;;
63218;SDS011;49320;52.512;13.448;2022-11-25T06:28:53;25.30;;;17.70;;
63218;SDS011;49320;52.512;13.448;2022-11-25T06:31:22;23.30;;;17.00;;
63218;SDS011;49320;52.512;13.448;2022-11-25T06:33:51;26.00;;;18.77;;
63218;SDS011;49320;52.512;13.448;2022-11-25T06:36:19;29.70;;;18.88;;
63218;SDS011;49320;52.512;13.448;2022-11-25T06:38:49;27.27;;;18.67;;
63218;SDS011;49320;52.512;13.448;2022-11-25T06:41:19;26.70;;;19.48;;
63218;SDS011;49320;52.512;13.448;2022-11-25T06:43:47;26.88;;;19.08;;
63218;SDS011;49320;52.512;13.448;2022-11-25T06:46:14;26.45;;;19.00;;
63218;SDS011;49320;52.512;13.448;2022-11-25T06:48:50;30.98;;;20.58;;
63218;SDS011;49320;52.512;13.448;2022-11-25T06:51:20;29.27;;;20.98;;
63218;SDS011;49320;52.512;13.448;2022-11-25T06:53:46;26.65;;;19.38;;
63218;SDS011;49320;52.512;13.448;2022-11-25T06:56:20;27.75;;;20.40;;
63218;SDS011;49320;52.512;13.448;2022-11-25T06:58:50;29.02;;;19.67;;
63218;SDS011;49320;52.512;13.448;2022-11-25T07:01:18;24.30;;;17.90;;
63218;SDS011;49320;52.512;13.448;2022-11-25T07:03:52;25.98;;;18.63;;
63218;SDS011;49320;52.512;13.448;2022-11-25T07:06:25;24.67;;;18.50;;
63218;SDS011;49320;52.512;13.448;2022-11-25T07:08:52;25.40;;;18.20;;
63218;SDS011;49320;52.512;13.448;2022-11-25T07:11:21;27.85;;;18.77;;
63218;SDS011;49320;52.512;13.448;2022-11-25T07:14:05;31.95;;;21.55;;
63218;SDS011;49320;52.512;13.448;2022-11-25T07:16:37;30.27;;;21.23;;
63218;SDS011;49320;52.512;13.448;2022-11-25T07:19:09;27.70;;;21.05;;
63218;SDS011;49320;52.512;13.448;2022-11-25T07:21:39;28.13;;;20.13;;
63218;SDS011;49320;52.512;13.448;2022-11-25T07:24:06;27.92;;;20.95;;
63218;SDS011;49320;52.512;13.448;2022-11-25T07:26:36;26.45;;;19.42;;
63218;SDS011;49320;52.512;13.448;2022-11-25T07:29:05;26.35;;;19.77;;
63218;SDS011;49320;52.512;13.448;2022-11-25T07:31:54;26.92;;;19.17;;
63218;SDS011;49320;52.512;13.448;2022-11-25T07:34:21;30.02;;;19.55;;
63218;SDS011;49320;52.512;13.448;2022-11-25T07:36:48;26.75;;;18.25;;
63218;SDS011;49320;52.512;13.448;2022-11-25T07:39:17;28.25;;;19.50;;
63218;SDS011;49320;52.512;13.448;2022-11-25T07:41:51;31.77;;;18.88;;
63218;SDS011;49320;52.512;13.448;2022-11-25T07:44:19;32.40;;;18.77;;
63218;SDS011;49320;52.512;13.448;2022-11-25T07:46:46;27.83;;;18.25;;
63218;SDS011;49320;52.512;13.448;2022-11-25T07:49:16;26.02;;;17.35;;
63218;SDS011;49320;52.512;13.448;2022-11-25T07:51:49;29.65;;;18.33;;
63218;SDS011;49320;52.512;13.448;2022-11-25T07:54:22;37.00;;;18.92;;
63218;SDS011;49320;52.512;13.448;2022-11-25T07:56:49;31.63;;;20.17;;
63218;SDS011;49320;52.512;13.448;2022-11-25T07:59:18;36.38;;;20.58;;
63218;SDS011;49320;52.512;13.448;2022-11-25T08:01:48;33.40;;;20.13;;
63218;SDS011;49320;52.512;13.448;2022-11-25T08:04:17;50.10;;;24.00;;
63218;SDS011;49320;52.512;13.448;2022-11-25T08:06:47;37.92;;;22.60;;
63218;SDS011;49320;52.512;13.448;2022-11-25T08:09:18;37.45;;;19.95;;
63218;SDS011;49320;52.512;13.448;2022-11-25T08:11:48;35.45;;;20.05;;
63218;SDS011;49320;52.512;13.448;2022-11-25T08:14:15;28.05;;;18.02;;
63218;SDS011;49320;52.512;13.448;2022-11-25T08:16:43;29.65;;;18.52;;
63218;SDS011;49320;52.512;13.448;2022-11-25T08:19:11;27.85;;;17.60;;
63218;SDS011;49320;52.512;13.448;2022-11-25T08:21:40;29.10;;;17.25;;
63218;SDS011;49320;52.512;13.448;2022-11-25T08:24:14;26.45;;;17.48;;
63218;SDS011;49320;52.512;13.448;2022-11-25T08:26:45;24.38;;;16.38;;
63218;SDS011;49320;52.512;13.448;2022-11-25T08:29:13;22.58;;;15.68;;
63218;SDS011;49320;52.512;13.448;2022-11-25T08:31:43;25.08;;;17.17;;
63218;SDS011;49320;52.512;13.448;2022-11-25T08:34:21;25.83;;;17.10;;
63218;SDS011;49320;52.512;13.448;2022-11-25T08:36:50;25.98;;;15.60;;
63218;SDS011;49320;52.512;13.448;2022-11-25T08:39:18;26.13;;;16.52;;
63218;SDS011;49320;52.512;13.448;2022-11-25T08:42:06;32.70;;;16.77;;
63218;SDS011;49320;52.512;13.448;2022-11-25T08:44:33;26.55;;;16.98;;
63218;SDS011;49320;52.512;13.448;2022-11-25T08:47:01;28.05;;;16.67;;
63218;SDS011;49320;52.512;13.448;2022-11-25T08:49:28;25.80;;;16.90;;
63218;SDS011;49320;52.512;13.448;2022-11-25T08:52:01;23.33;;;14.80;;
63218;SDS011;49320;52.512;13.448;2022-11-25T08:54:28;25.33;;;15.55;;
63218;SDS011;49320;52.512;13.448;2022-11-25T08:56:55;27.08;;;15.98;;
63218;SDS011;49320;52.512;13.448;2022-11-25T08:59:22;25.48;;;17.45;;
63218;SDS011;49320;52.512;13.448;2022-11-25T09:01:50;29.45;;;17.80;;
63218;SDS011;49320;52.512;13.448;2022-11-25T09:04:17;28.85;;;17.38;;
63218;SDS011;49320;52.512;13.448;2022-11-25T09:06:44;25.67;;;16.92;;
63218;SDS011;49320;52.512;13.448;2022-11-25T09:09:11;32.53;;;19.45;;
63218;SDS011;49320;52.512;13.448;2022-11-25T09:11:38;27.17;;;17.80;;
63218;SDS011;49320;52.512;13.448;2022-11-25T09:14:05;24.00;;;15.45;;
63218;SDS011;49320;52.512;13.448;2022-11-25T09:16:33;26.33;;;18.00;;
63218;SDS011;49320;52.512;13.448;2022-11-25T09:19:00;29.88;;;17.48;;
63218;SDS011;49320;52.512;13.448;2022-11-25T09:21:27;31.02;;;19.00;;
63218;SDS011;49320;52.512;13.448;2022-11-25T09:23:53;27.92;;;17.38;;
63218;SDS011;49320;52.512;13.448;2022-11-25T09:26:21;27.48;;;16.92;;
63218;SDS011;49320;52.512;13.448;2022-11-25T09:28:55;27.35;;;18.48;;
63218;SDS011;49320;52.512;13.448;2022-11-25T09:31:23;31.60;;;19.50;;
63218;SDS011;49320;52.512;13.448;2022-11-25T09:33:50;27.40;;;19.35;;
63218;SDS011;49320;52.512;13.448;2022-11-25T09:36:17;27.77;;;17.95;;
63218;SDS011;49320;52.512;13.448;2022-11-25T09:38:46;27.20;;;18.08;;
63218;SDS011;49320;52.512;13.448;2022-11-25T09:44:45;25.25;;;18.27;;
63218;SDS011;49320;52.512;13.448;2022-11-25T09:54:13;27.02;;;17.70;;
63218;SDS011;49320;52.512;13.448;2022-11-25T09:56:54;26.77;;;17.73;;
63218;SDS011;49320;52.512;13.448;2022-11-25T09:59:33;25.52;;;18.38;;
63218;SDS011;49320;52.512;13.448;2022-11-25T10:02:19;24.88;;;17.80;;
63218;SDS011;49320;52.512;13.448;2022-11-25T10:08:40;22.23;;;16.67;;
63218;SDS011;49320;52.512;13.448;2022-11-25T10:10:53;23.77;;;17.48;;
63218;SDS011;49320;52.512;13.448;2022-11-25T10:13:30;24.95;;;18.38;;
63218;SDS011;49320;52.512;13.448;2022-11-25T10:19:10;29.42;;;19.42;;
63218;SDS011;49320;52.512;13.448;2022-11-25T10:21:49;28.95;;;19.60;;
63218;SDS011;49320;52.512;13.448;2022-11-25T10:24:17;28.13;;;20.00;;
63218;SDS011;49320;52.512;13.448;2022-11-25T10:26:48;22.90;;;18.10;;
63218;SDS011;49320;52.512;13.448;2022-11-25T10:29:26;25.75;;;18.05;;
63218;SDS011;49320;52.512;13.448;2022-11-25T10:31:57;24.88;;;17.85;;
63218;SDS011;49320;52.512;13.448;2022-11-25T10:34:46;24.40;;;18.08;;
63218;SDS011;49320;52.512;13.448;2022-11-25T10:37:32;23.77;;;17.90;;
63218;SDS011;49320;52.512;13.448;2022-11-25T10:40:12;23.38;;;16.55;;
63218;SDS011;49320;52.512;13.448;2022-11-25T10:42:43;22.98;;;17.02;;
63218;SDS011;49320;52.512;13.448;2022-11-25T10:45:10;23.83;;;18.55;;
63218;SDS011;49320;52.512;13.448;2022-11-25T10:47:50;24.83;;;19.25;;
63218;SDS011;49320;52.512;13.448;2022-11-25T10:50:32;22.98;;;16.10;;
63218;SDS011;49320;52.512;13.448;2022-11-25T10:53:19;21.38;;;16.40;;
63218;SDS011;49320;52.512;13.448;2022-11-25T11:03:31;18.67;;;14.55;;
63218;SDS011;49320;52.512;13.448;2022-11-25T11:05:59;22.35;;;17.00;;
63218;SDS011;49320;52.512;13.448;2022-11-25T11:08:27;23.15;;;16.05;;
63218;SDS011;49320;52.512;13.448;2022-11-25T11:13:47;21.77;;;15.77;;
63218;SDS011;49320;52.512;13.448;2022-11-25T11:16:29;21.45;;;16.30;;
63218;SDS011;49320;52.512;13.448;2022-11-25T11:19:02;17.95;;;15.77;;
63218;SDS011;49320;52.512;13.448;2022-11-25T11:21:31;26.00;;;17.35;;
63218;SDS011;49320;52.512;13.448;2022-11-25T11:24:03;19.55;;;16.92;;
63218;SDS011;49320;52.512;13.448;2022-11-25T11:30:12;22.50;;;18.50;;
63218;SDS011;49320;52.512;13.448;2022-11-25T11:35:52;19.38;;;14.57;;
63218;SDS011;49320;52.512;13.448;2022-11-25T11:38:34;19.95;;;16.15;;
63218;SDS011;49320;52.512;13.448;2022-11-25T11:41:33;20.17;;;16.65;;
63218;SDS011;49320;52.512;13.448;2022-11-25T11:44:20;22.30;;;16.75;;
63218;SDS011;49320;52.512;13.448;2022-11-25T11:59:10;23.20;;;18.13;;
63218;SDS011;49320;52.512;13.448;2022-11-25T12:02:24;24.35;;;17.88;;
63218;SDS011;49320;52.512;13.448;2022-11-25T12:07:53;24.65;;;17.73;;
63218;SDS011;49320;52.512;13.448;2022-11-25T12:10:43;22.45;;;17.45;;
63218;SDS011;49320;52.512;13.448;2022-11-25T12:13:23;22.27;;;17.02;;
63218;SDS011;49320;52.512;13.448;2022-11-25T12:16:07;24.30;;;18.80;;
63218;SDS011;49320;52.512;13.448;2022-11-25T12:18:44;21.88;;;17.38;;
63218;SDS011;49320;52.512;13.448;2022-11-25T12:24:28;22.20;;;17.65;;
63218;SDS011;49320;52.512;13.448;2022-11-25T12:27:07;21.70;;;16.40;;
63218;SDS011;49320;52.512;13.448;2022-11-25T12:29:51;23.23;;;16.65;;
63218;SDS011;49320;52.512;13.448;2022-11-25T12:32:50;24.90;;;17.65;;
63218;SDS011;49320;52.512;13.448;2022-11-25T12:35:42;21.85;;;16.83;;
63218;SDS011;49320;52.512;13.448;2022-11-25T12:39:17;23.05;;;17.42;;
63218;SDS011;49320;52.512;13.448;2022-11-25T12:44:19;22.60;;;17.83;;
63218;SDS011;49320;52.512;13.448;2022-11-25T12:47:15;21.70;;;17.20;;
63218;SDS011;49320;52.512;13.448;2022-11-25T12:49:45;18.38;;;16.08;;
63218;SDS011;49320;52.512;13.448;2022-11-25T12:55:16;17.95;;;15.45;;
63218;SDS011;49320;52.512;13.448;2022-11-25T13:00:53;19.73;;;15.75;;
63218;SDS011;49320;52.512;13.448;2022-11-25T13:03:59;17.67;;;15.30;;
63218;SDS011;49320;52.512;13.448;2022-11-25T13:09:36;20.30;;;16.70;;
63218;SDS011;49320;52.512;13.448;2022-11-25T13:12:31;21.13;;;15.73;;
63218;SDS011;49320;52.512;13.448;2022-11-25T13:15:40;20.65;;;15.75;;
63218;SDS011;49320;52.512;13.448;2022-11-25T13:18:13;18.55;;;14.80;;
63218;SDS011;49320;52.512;13.448;2022-11-25T13:20:46;19.52;;;14.98;;
63218;SDS011;49320;52.512;13.448;2022-11-25T13:23:20;17.58;;;14.68;;
63218;SDS011;49320;52.512;13.448;2022-11-25T13:26:32;19.48;;;15.82;;
63218;SDS011;49320;52.512;13.448;2022-11-25T13:29:00;17.70;;;14.32;;
63218;SDS011;49320;52.512;13.448;2022-11-25T13:32:00;19.38;;;14.85;;
63218;SDS011;49320;52.512;13.448;2022-11-25T13:34:31;18.58;;;14.80;;
63218;SDS011;49320;52.512;13.448;2022-11-25T13:37:00;18.77;;;14.90;;
63218;SDS011;49320;52.512;13.448;2022-11-25T13:42:56;19.58;;;15.35;;
63218;SDS011;49320;52.512;13.448;2022-11-25T13:45:38;17.83;;;14.13;;
63218;SDS011;49320;52.512;13.448;2022-11-25T13:48:15;18.85;;;15.48;;
63218;SDS011;49320;52.512;13.448;2022-11-25T13:51:03;18.15;;;14.15;;
63218;SDS011;49320;52.512;13.448;2022-11-25T13:53:56;16.88;;;13.85;;
63218;SDS011;49320;52.512;13.448;2022-11-25T13:56:34;18.33;;;13.20;;
63218;SDS011;49320;52.512;13.448;2022-11-25T14:04:14;20.95;;;15.07;;
63218;SDS011;49320;52.512;13.448;2022-11-25T14:09:54;19.52;;;15.30;;
63218;SDS011;49320;52.512;13.448;2022-11-25T14:12:56;18.50;;;14.57;;
63218;SDS011;49320;52.512;13.448;2022-11-25T14:16:04;19.05;;;13.90;;
63218;SDS011;49320;52.512;13.448;2022-11-25T14:25:26;19.40;;;14.88;;
63218;SDS011;49320;52.512;13.448;2022-11-25T14:31:05;17.27;;;13.32;;
63218;SDS011;49320;52.512;13.448;2022-11-25T14:33:50;20.38;;;15.50;;
63218;SDS011;49320;52.512;13.448;2022-11-25T14:36:32;17.58;;;13.20;;
63218;SDS011;49320;52.512;13.448;2022-11-25T14:39:08;19.85;;;13.82;;
63218;SDS011;49320;52.512;13.448;2022-11-25T14:44:31;17.23;;;13.52;;
63218;SDS011;49320;52.512;13.448;2022-11-25T14:47:12;20.97;;;14.50;;
63218;SDS011;49320;52.512;13.448;2022-11-25T14:49:40;21.48;;;14.93;;
63218;SDS011;49320;52.512;13.448;2022-11-25T14:55:02;14.88;;;12.00;;
63218;SDS011;49320;52.512;13.448;2022-11-25T14:57:31;17.67;;;13.48;;
63218;SDS011;49320;52.512;13.448;2022-11-25T15:00:06;18.83;;;13.38;;
63218;SDS011;49320;52.512;13.448;2022-11-25T15:02:50;17.02;;;12.80;;
63218;SDS011;49320;52.512;13.448;2022-11-25T15:05:35;17.55;;;13.70;;
63218;SDS011;49320;52.512;13.448;2022-11-25T15:08:10;17.23;;;13.75;;
63218;SDS011;49320;52.512;13.448;2022-11-25T15:10:41;17.13;;;13.45;;
63218;SDS011;49320;52.512;13.448;2022-11-25T15:13:37;20.58;;;14.07;;
63218;SDS011;49320;52.512;13.448;2022-11-25T15:16:12;19.10;;;13.75;;
63218;SDS011;49320;52.512;13.448;2022-11-25T15:18:56;19.50;;;14.75;;
63218;SDS011;49320;52.512;13.448;2022-11-25T15:21:33;22.48;;;15.50;;
63218;SDS011;49320;52.512;13.448;2022-11-25T15:24:25;19.88;;;15.45;;
63218;SDS011;49320;52.512;13.448;2022-11-25T15:26:58;19.52;;;14.73;;
63218;SDS011;49320;52.512;13.448;2022-11-25T15:29:28;22.20;;;14.55;;
63218;SDS011;49320;52.512;13.448;2022-11-25T15:32:05;19.70;;;14.98;;
63218;SDS011;49320;52.512;13.448;2022-11-25T15:34:37;19.20;;;15.70;;
63218;SDS011;49320;52.512;13.448;2022-11-25T15:37:04;23.52;;;16.58;;
63218;SDS011;49320;52.512;13.448;2022-11-25T15:39:31;21.88;;;15.35;;
63218;SDS011;49320;52.512;13.448;2022-11-25T15:42:04;19.90;;;16.15;;
63218;SDS011;49320;52.512;13.448;2022-11-25T15:44:58;18.52;;;15.02;;
63218;SDS011;49320;52.512;13.448;2022-11-25T15:47:34;18.52;;;14.55;;
63218;SDS011;49320;52.512;13.448;2022-11-25T15:50:05;21.08;;;15.63;;
63218;SDS011;49320;52.512;13.448;2022-11-25T15:52:47;20.20;;;15.45;;
63218;SDS011;49320;52.512;13.448;2022-11-25T15:55:41;20.27;;;15.52;;
63218;SDS011;49320;52.512;13.448;2022-11-25T15:58:15;18.73;;;15.05;;
63218;SDS011;49320;52.512;13.448;2022-11-25T16:01:06;20.45;;;15.65;;
63218;SDS011;49320;52.512;13.448;2022-11-25T16:03:43;20.67;;;16.60;;
63218;SDS011;49320;52.512;13.448;2022-11-25T16:06:18;21.88;;;17.23;;
63218;SDS011;49320;52.512;13.448;2022-11-25T16:09:00;21.23;;;15.38;;
63218;SDS011;49320;52.512;13.448;2022-11-25T16:11:42;18.77;;;14.88;;
63218;SDS011;49320;52.512;13.448;2022-11-25T16:14:26;19.17;;;14.55;;
63218;SDS011;49320;52.512;13.448;2022-11-25T16:17:01;20.90;;;16.05;;
63218;SDS011;49320;52.512;13.448;2022-11-25T16:19:38;20.67;;;16.23;;
63218;SDS011;49320;52.512;13.448;2022-11-25T16:22:14;21.42;;;16.55;;